createdAt,value
2023-02-17T00:00:09.090Z,27.93
2023-02-17T00:02:38.677Z,28.37
2023-02-17T00:05:07.017Z,29.53
2023-02-17T00:07:34.909Z,30.30
2023-02-17T00:10:05.118Z,29.50
2023-02-17T00:12:33.112Z,31.00
2023-02-17T00:15:00.797Z,31.53
2023-02-17T00:17:28.844Z,32.83
2023-02-17T00:19:57.814Z,32.30
2023-02-17T00:22:25.683Z,33.10
2023-02-17T00:24:53.369Z,33.87
2023-02-17T00:27:21.236Z,32.47
2023-02-17T00:29:49.043Z,35.20
2023-02-17T00:32:18.460Z,36.40
2023-02-17T00:34:46.368Z,36.77
2023-02-17T00:37:15.975Z,35.33
2023-02-17T00:39:44.022Z,37.80
2023-02-17T00:42:11.728Z,36.73
2023-02-17T00:44:39.623Z,37.33
2023-02-17T00:47:07.484Z,37.00
2023-02-17T00:49:35.306Z,36.57
2023-02-17T00:52:03.231Z,38.03
2023-02-17T00:54:35.761Z,37.20
2023-02-17T00:57:03.458Z,38.00
2023-02-17T00:59:33.010Z,38.30
2023-02-17T01:02:01.110Z,38.17
2023-02-17T01:04:30.370Z,38.70
2023-02-17T01:06:58.225Z,37.80
2023-02-17T01:09:26.225Z,38.97
2023-02-17T01:11:57.436Z,49.87
2023-02-17T01:14:25.682Z,52.13
2023-02-17T01:16:56.949Z,80.43
2023-02-17T01:19:24.617Z,36.80
2023-02-17T01:21:52.406Z,35.37
2023-02-17T01:24:20.391Z,38.20
2023-02-17T01:26:48.060Z,36.40
2023-02-17T01:29:17.233Z,37.30
2023-02-17T01:31:45.989Z,37.73
2023-02-17T01:34:14.030Z,37.00
2023-02-17T01:36:41.662Z,37.33
2023-02-17T01:39:11.998Z,36.27
2023-02-17T01:41:39.765Z,37.37
2023-02-17T01:44:16.543Z,39.57
2023-02-17T01:46:46.694Z,36.10
2023-02-17T01:49:18.915Z,36.97
2023-02-17T01:51:50.239Z,36.80
2023-02-17T01:54:21.005Z,34.70
2023-02-17T01:56:49.643Z,35.90
2023-02-17T01:59:18.257Z,35.13
2023-02-17T02:01:48.010Z,34.50
2023-02-17T02:04:17.764Z,34.77
2023-02-17T02:06:45.997Z,34.57
2023-02-17T02:09:16.775Z,33.43
2023-02-17T02:11:44.957Z,35.63
2023-02-17T02:14:14.013Z,35.30
2023-02-17T02:16:45.202Z,36.40
2023-02-17T02:19:24.871Z,35.90
2023-02-17T02:22:07.701Z,34.80
2023-02-17T02:24:39.706Z,35.57
2023-02-17T02:27:26.589Z,37.80
2023-02-17T02:30:09.555Z,38.10
2023-02-17T02:32:44.581Z,36.20
2023-02-17T02:35:15.985Z,37.30
2023-02-17T02:37:45.904Z,36.00
2023-02-17T02:40:15.566Z,37.17
2023-02-17T02:42:43.679Z,38.00
2023-02-17T02:45:12.362Z,39.60
2023-02-17T02:47:46.248Z,38.27
2023-02-17T02:50:19.216Z,37.50
2023-02-17T02:53:01.861Z,38.83
2023-02-17T02:55:38.156Z,39.57
2023-02-17T02:58:12.320Z,38.43
2023-02-17T03:00:42.799Z,39.20
2023-02-17T03:03:16.878Z,39.00
2023-02-17T03:05:49.199Z,39.93
2023-02-17T03:08:21.666Z,41.47
2023-02-17T03:10:51.177Z,39.93
2023-02-17T03:13:19.934Z,39.87
2023-02-17T03:15:48.428Z,40.73
2023-02-17T03:18:17.772Z,39.87
2023-02-17T03:20:49.312Z,39.17
2023-02-17T03:23:17.265Z,41.00
2023-02-17T03:25:45.418Z,39.80
2023-02-17T03:28:13.683Z,41.03
2023-02-17T03:30:42.710Z,41.03
2023-02-17T03:33:10.406Z,41.10
2023-02-17T03:35:39.443Z,42.43
2023-02-17T03:38:07.325Z,42.00
2023-02-17T03:40:34.966Z,41.43
2023-02-17T03:43:02.571Z,43.80
2023-02-17T03:45:30.711Z,41.20
2023-02-17T03:47:58.381Z,41.90
2023-02-17T03:50:26.426Z,42.50
2023-02-17T03:52:56.453Z,42.40
2023-02-17T03:55:24.198Z,42.73
2023-02-17T03:57:52.159Z,42.50
2023-02-17T04:00:20.442Z,42.43
2023-02-17T04:02:48.256Z,43.67
2023-02-17T04:05:15.950Z,43.57
2023-02-17T04:07:43.701Z,43.77
2023-02-17T04:10:12.854Z,44.10
2023-02-17T04:12:40.538Z,42.80
2023-02-17T04:15:08.552Z,42.43
2023-02-17T04:17:37.060Z,42.07
2023-02-17T04:20:05.008Z,43.37
2023-02-17T04:22:33.784Z,43.70
2023-02-17T04:25:01.449Z,43.50
2023-02-17T04:27:31.137Z,43.97
2023-02-17T04:29:58.781Z,43.77
2023-02-17T04:32:26.696Z,43.90
2023-02-17T04:34:54.664Z,43.87
2023-02-17T04:37:22.419Z,45.90
2023-02-17T04:39:50.505Z,45.40
2023-02-17T04:42:18.726Z,44.63
2023-02-17T04:44:47.932Z,43.50
2023-02-17T04:47:15.710Z,44.80
2023-02-17T04:49:43.577Z,43.93
2023-02-17T04:52:11.620Z,44.93
2023-02-17T04:54:39.254Z,44.43
2023-02-17T04:57:07.456Z,43.60
2023-02-17T04:59:35.556Z,44.10
2023-02-17T05:02:04.903Z,44.00
2023-02-17T05:04:33.057Z,43.77
2023-02-17T05:07:00.795Z,44.03
2023-02-17T05:09:28.998Z,45.57
2023-02-17T05:11:57.383Z,44.43
2023-02-17T05:14:25.089Z,43.43
2023-02-17T05:16:52.825Z,44.83
2023-02-17T05:19:22.057Z,45.07
2023-02-17T05:21:50.091Z,45.97
2023-02-17T05:24:17.780Z,44.90
2023-02-17T05:26:46.246Z,45.00
2023-02-17T05:29:13.899Z,45.00
2023-02-17T05:31:41.962Z,45.50
2023-02-17T05:34:09.869Z,44.80
2023-02-17T05:36:38.969Z,44.17
2023-02-17T05:39:06.698Z,46.73
2023-02-17T05:41:34.673Z,46.10
2023-02-17T05:44:03.479Z,45.20
2023-02-17T05:46:31.175Z,43.00
2023-02-17T05:49:00.557Z,45.37
2023-02-17T05:51:28.169Z,45.30
2023-02-17T05:53:57.310Z,44.30
2023-02-17T05:56:25.220Z,45.47
2023-02-17T05:58:52.967Z,44.77
2023-02-17T06:01:20.870Z,44.20
2023-02-17T06:03:50.230Z,46.23
2023-02-17T06:06:17.858Z,43.17
2023-02-17T06:08:45.849Z,44.30
2023-02-17T06:11:15.138Z,40.43
2023-02-17T06:13:43.001Z,40.13
2023-02-17T06:16:10.854Z,38.77
2023-02-17T06:18:38.935Z,39.17
2023-02-17T06:21:07.157Z,39.80
2023-02-17T06:23:34.927Z,40.40
2023-02-17T06:26:02.533Z,39.27
2023-02-17T06:28:33.643Z,40.30
2023-02-17T06:31:02.816Z,40.43
2023-02-17T06:33:30.759Z,38.00
2023-02-17T06:35:58.874Z,39.87
2023-02-17T06:38:26.654Z,39.93
2023-02-17T06:40:54.690Z,39.80
2023-02-17T06:43:22.332Z,39.80
2023-02-17T06:45:51.556Z,39.17
2023-02-17T06:48:19.430Z,39.27
2023-02-17T06:50:47.731Z,39.37
2023-02-17T06:53:15.748Z,39.43
2023-02-17T06:55:44.781Z,39.93
2023-02-17T06:58:12.401Z,38.70
2023-02-17T07:00:40.050Z,38.60
2023-02-17T07:03:09.395Z,38.27
2023-02-17T07:05:37.779Z,37.40
2023-02-17T07:08:05.704Z,40.30
2023-02-17T07:10:34.484Z,37.23
2023-02-17T07:13:03.732Z,37.93
2023-02-17T07:15:31.411Z,38.13
2023-02-17T07:17:59.514Z,36.37
2023-02-17T07:20:28.949Z,36.13
2023-02-17T07:22:56.515Z,35.73
2023-02-17T07:25:24.165Z,33.77
2023-02-17T07:27:52.025Z,34.27
2023-02-17T07:30:19.801Z,33.83
2023-02-17T07:32:47.642Z,34.77
2023-02-17T07:35:15.233Z,32.70
2023-02-17T07:37:44.288Z,31.97
2023-02-17T07:40:12.336Z,31.80
2023-02-17T07:42:40.220Z,32.30
2023-02-17T07:45:08.156Z,31.43
2023-02-17T07:47:36.501Z,29.23
2023-02-17T07:50:04.157Z,29.80
2023-02-17T07:52:32.562Z,28.10
2023-02-17T07:55:01.531Z,28.30
2023-02-17T07:57:29.343Z,27.10
2023-02-17T07:59:57.287Z,27.43
2023-02-17T08:02:24.990Z,26.43
2023-02-17T08:04:52.910Z,26.10
2023-02-17T08:07:21.134Z,25.67
2023-02-17T08:10:06.186Z,25.03
2023-02-17T08:12:53.099Z,24.67
2023-02-17T08:15:20.953Z,24.73
2023-02-17T08:17:50.983Z,23.27
2023-02-17T08:20:18.982Z,24.37
2023-02-17T08:22:46.630Z,22.60
2023-02-17T08:25:14.379Z,26.83
2023-02-17T08:27:43.543Z,21.97
2023-02-17T08:30:11.747Z,23.07
2023-02-17T08:32:39.936Z,21.37
2023-02-17T08:35:07.986Z,23.07
2023-02-17T08:37:35.618Z,22.60
2023-02-17T08:40:03.604Z,22.83
2023-02-17T08:42:33.049Z,22.47
2023-02-17T08:45:02.163Z,24.30
2023-02-17T08:47:30.050Z,24.20
2023-02-17T08:49:58.219Z,23.00
2023-02-17T08:52:25.899Z,23.70
2023-02-17T08:54:53.726Z,24.10
2023-02-17T08:57:22.543Z,24.83
2023-02-17T08:59:50.504Z,23.87
2023-02-17T09:02:19.825Z,23.70
2023-02-17T09:04:47.818Z,23.97
2023-02-17T09:07:15.985Z,25.20
2023-02-17T09:09:44.383Z,24.40
2023-02-17T09:12:12.264Z,21.70
2023-02-17T09:14:40.116Z,22.83
2023-02-17T09:17:07.799Z,23.50
2023-02-17T09:19:39.117Z,23.93
2023-02-17T09:22:06.861Z,22.97
2023-02-17T09:24:38.841Z,23.90
2023-02-17T09:27:06.848Z,24.03
2023-02-17T09:29:34.625Z,22.87
2023-02-17T09:32:02.915Z,23.60
2023-02-17T09:34:31.217Z,22.70
2023-02-17T09:37:00.395Z,24.03
2023-02-17T09:39:28.166Z,23.77
2023-02-17T09:41:56.638Z,25.07
2023-02-17T09:44:26.029Z,22.20
2023-02-17T09:47:02.279Z,23.30
2023-02-17T09:49:33.913Z,23.50
2023-02-17T09:52:06.740Z,22.20
2023-02-17T09:54:38.275Z,24.93
2023-02-17T09:57:07.640Z,23.70
2023-02-17T09:59:37.872Z,24.57
2023-02-17T10:02:08.411Z,24.00
2023-02-17T10:04:38.287Z,25.00
2023-02-17T10:07:11.055Z,24.03
2023-02-17T10:09:40.737Z,25.83
2023-02-17T10:12:10.969Z,25.10
2023-02-17T10:14:41.400Z,25.13
2023-02-17T10:17:11.384Z,24.07
2023-02-17T10:19:44.172Z,23.87
2023-02-17T10:22:15.678Z,25.17
2023-02-17T10:24:43.561Z,26.20
2023-02-17T10:27:19.088Z,25.67
2023-02-17T10:29:51.419Z,25.97
2023-02-17T10:32:23.415Z,25.37
2023-02-17T10:34:58.249Z,27.23
2023-02-17T10:37:31.105Z,25.30
2023-02-17T10:40:01.380Z,27.37
2023-02-17T10:42:31.149Z,26.77
2023-02-17T10:45:02.661Z,27.03
2023-02-17T10:47:31.357Z,28.50
2023-02-17T10:50:01.198Z,27.90
2023-02-17T10:52:33.649Z,29.50
2023-02-17T10:55:11.378Z,27.27
2023-02-17T10:57:50.668Z,28.50
2023-02-17T11:00:19.845Z,29.10
2023-02-17T11:02:48.857Z,30.67
2023-02-17T11:05:25.094Z,30.43
2023-02-17T11:07:58.013Z,29.40
2023-02-17T11:10:29.050Z,28.30
2023-02-17T11:12:58.827Z,27.60
2023-02-17T11:15:27.985Z,27.67
2023-02-17T11:17:56.320Z,27.53
2023-02-17T11:20:29.831Z,25.80
2023-02-17T11:23:03.209Z,26.33
2023-02-17T11:25:32.650Z,26.10
2023-02-17T11:28:01.071Z,25.07
2023-02-17T11:30:29.859Z,25.90
2023-02-17T11:32:57.729Z,25.03
2023-02-17T11:35:27.301Z,24.00
2023-02-17T11:38:03.730Z,23.90
2023-02-17T11:40:34.077Z,23.53
2023-02-17T11:43:02.827Z,24.30
2023-02-17T11:45:35.196Z,24.60
2023-02-17T11:48:10.810Z,22.10
2023-02-17T11:50:43.948Z,23.80
2023-02-17T11:53:27.258Z,19.10
2023-02-17T11:56:00.241Z,21.23
2023-02-17T11:58:35.735Z,18.47
2023-02-17T12:01:07.272Z,18.50
2023-02-17T12:03:42.045Z,18.03
2023-02-17T12:06:12.024Z,17.20
2023-02-17T12:08:49.761Z,18.53
2023-02-17T12:11:21.245Z,16.90
2023-02-17T12:13:56.593Z,16.00
2023-02-17T12:16:37.126Z,14.97
2023-02-17T12:19:09.112Z,16.03
2023-02-17T12:21:48.627Z,15.80
2023-02-17T12:24:26.397Z,14.97
2023-02-17T12:26:56.542Z,14.90
2023-02-17T12:29:29.154Z,12.90
2023-02-17T12:32:11.490Z,11.87
2023-02-17T12:34:42.175Z,12.40
2023-02-17T12:37:17.354Z,11.97
2023-02-17T12:39:49.760Z,12.33
2023-02-17T12:42:20.314Z,10.97
2023-02-17T12:44:50.840Z,10.57
2023-02-17T12:47:24.115Z,9.90
2023-02-17T12:49:54.275Z,10.50
2023-02-17T12:52:24.926Z,9.83
2023-02-17T12:54:56.881Z,8.60
2023-02-17T12:57:26.418Z,9.50
2023-02-17T12:59:54.754Z,9.00
2023-02-17T13:02:23.758Z,8.30
2023-02-17T13:04:52.227Z,8.40
2023-02-17T13:07:24.312Z,8.40
2023-02-17T13:09:52.831Z,8.90
2023-02-17T13:12:35.742Z,9.90
2023-02-17T13:15:05.355Z,8.10
2023-02-17T13:17:33.948Z,8.67
2023-02-17T13:20:05.181Z,8.07
2023-02-17T13:22:33.235Z,8.40
2023-02-17T13:25:00.977Z,8.73
2023-02-17T13:27:33.774Z,7.83
2023-02-17T13:30:03.479Z,7.70
2023-02-17T13:32:32.487Z,7.30
2023-02-17T13:35:01.586Z,7.50
2023-02-17T13:37:39.826Z,6.70
2023-02-17T13:40:23.252Z,6.77
2023-02-17T13:42:51.551Z,7.80
2023-02-17T13:45:22.051Z,6.10
2023-02-17T13:47:51.380Z,7.30
2023-02-17T13:50:32.971Z,7.60
2023-02-17T13:53:02.484Z,6.47
2023-02-17T13:55:30.331Z,6.47
2023-02-17T13:57:58.804Z,6.70
2023-02-17T14:00:29.346Z,5.53
2023-02-17T14:02:57.770Z,5.30
2023-02-17T14:05:28.362Z,5.50
2023-02-17T14:07:58.691Z,6.20
2023-02-17T14:10:27.393Z,5.60
2023-02-17T14:12:55.682Z,5.50
2023-02-17T14:15:25.756Z,5.77
2023-02-17T14:17:55.035Z,6.33
2023-02-17T14:20:31.192Z,5.27
2023-02-17T14:23:06.705Z,5.23
2023-02-17T14:25:35.885Z,6.87
2023-02-17T14:28:04.274Z,6.00
2023-02-17T14:30:34.361Z,6.60
2023-02-17T14:33:05.072Z,5.40
2023-02-17T14:35:35.072Z,5.83
2023-02-17T14:38:09.942Z,5.60
2023-02-17T14:40:40.015Z,6.07
2023-02-17T14:43:09.141Z,6.70
2023-02-17T14:45:37.490Z,6.10
2023-02-17T14:48:07.210Z,6.80
2023-02-17T14:50:35.213Z,7.10
2023-02-17T14:53:02.993Z,7.63
2023-02-17T14:55:33.702Z,8.13
2023-02-17T14:58:03.336Z,8.53
2023-02-17T15:00:31.090Z,8.97
2023-02-17T15:02:58.906Z,9.50
2023-02-17T15:05:27.976Z,10.07
2023-02-17T15:07:56.064Z,10.30
2023-02-17T15:10:26.623Z,10.70
2023-02-17T15:12:54.786Z,11.07
2023-02-17T15:15:23.101Z,11.97
2023-02-17T15:17:50.899Z,12.00
2023-02-17T15:20:18.925Z,13.00
2023-02-17T15:22:52.709Z,12.47
2023-02-17T15:25:22.193Z,13.10
2023-02-17T15:27:50.831Z,13.40
2023-02-17T15:30:20.099Z,14.50
2023-02-17T15:32:49.486Z,13.20
2023-02-17T15:35:17.957Z,13.50
2023-02-17T15:38:13.074Z,14.70
2023-02-17T15:40:41.681Z,14.90
2023-02-17T15:43:11.224Z,14.80
2023-02-17T15:45:38.944Z,15.23
2023-02-17T15:48:08.171Z,15.87
2023-02-17T15:50:36.239Z,16.17
2023-02-17T15:53:04.033Z,17.03
2023-02-17T15:55:34.304Z,16.37
2023-02-17T15:58:04.632Z,15.47
2023-02-17T16:00:33.742Z,16.37
2023-02-17T16:03:01.440Z,16.30
2023-02-17T16:05:30.681Z,17.43
2023-02-17T16:07:58.361Z,16.40
2023-02-17T16:10:28.076Z,16.17
2023-02-17T16:12:58.872Z,16.60
2023-02-17T16:15:26.938Z,15.53
2023-02-17T16:17:55.615Z,16.20
2023-02-17T16:20:24.398Z,17.17
2023-02-17T16:22:52.145Z,16.60
2023-02-17T16:25:20.312Z,14.03
2023-02-17T16:27:49.309Z,15.77
2023-02-17T16:30:23.168Z,14.57
2023-02-17T16:32:51.309Z,14.13
2023-02-17T16:35:19.902Z,13.60
2023-02-17T16:37:50.350Z,13.97
2023-02-17T16:40:18.963Z,13.40
2023-02-17T16:42:46.729Z,12.13
2023-02-17T16:45:16.221Z,11.30
2023-02-17T16:47:48.196Z,10.77
2023-02-17T16:50:23.208Z,10.30
2023-02-17T16:52:52.528Z,9.93
2023-02-17T16:55:21.827Z,10.03
2023-02-17T16:57:50.208Z,9.60
2023-02-17T17:00:20.230Z,8.70
2023-02-17T17:02:50.012Z,8.43
2023-02-17T17:05:18.326Z,7.70
2023-02-17T17:07:46.046Z,7.97
2023-02-17T17:10:17.023Z,7.70
2023-02-17T17:12:47.305Z,7.60
2023-02-17T17:15:16.250Z,7.17
2023-02-17T17:17:45.904Z,6.00
2023-02-17T17:20:16.589Z,6.37
2023-02-17T17:22:46.743Z,7.00
2023-02-17T17:25:14.867Z,7.13
2023-02-17T17:27:42.921Z,7.80
2023-02-17T17:30:16.336Z,8.80
2023-02-17T17:32:44.079Z,6.70
2023-02-17T17:35:11.765Z,9.43
2023-02-17T17:37:41.166Z,6.87
2023-02-17T17:40:13.582Z,6.17
2023-02-17T17:42:42.735Z,5.10
2023-02-17T17:45:11.297Z,6.80
2023-02-17T17:47:39.596Z,5.07
2023-02-17T17:50:10.302Z,6.13
2023-02-17T17:52:40.797Z,4.93
2023-02-17T17:55:08.611Z,5.17
2023-02-17T17:57:36.398Z,5.00
2023-02-17T18:00:05.966Z,5.17
2023-02-17T18:02:42.722Z,5.87
2023-02-17T18:05:10.734Z,4.90
2023-02-17T18:07:38.724Z,5.03
2023-02-17T18:10:09.288Z,4.97
2023-02-17T18:12:37.653Z,5.40
2023-02-17T18:15:05.963Z,5.10
2023-02-17T18:17:34.714Z,5.20
2023-02-17T18:20:02.460Z,5.60
2023-02-17T18:22:30.217Z,5.80
2023-02-17T18:24:59.584Z,6.53
2023-02-17T18:27:37.357Z,5.13
2023-02-17T18:30:07.408Z,5.53
2023-02-17T18:32:37.148Z,5.70
2023-02-17T18:35:05.864Z,5.27
2023-02-17T18:37:34.099Z,5.67
2023-02-17T18:40:02.007Z,6.30
2023-02-17T18:42:31.397Z,5.73
2023-02-17T18:44:59.621Z,5.40
2023-02-17T18:47:27.429Z,5.80
2023-02-17T18:49:55.305Z,4.53
2023-02-17T18:52:23.709Z,3.87
2023-02-17T18:54:51.538Z,4.67
2023-02-17T18:57:19.154Z,3.77
2023-02-17T18:59:49.248Z,3.10
2023-02-17T19:02:16.990Z,3.30
2023-02-17T19:04:44.664Z,2.70
2023-02-17T19:07:12.977Z,3.60
2023-02-17T19:09:42.709Z,2.50
2023-02-17T19:12:13.699Z,2.33
2023-02-17T19:14:44.238Z,2.80
2023-02-17T19:17:13.704Z,2.93
2023-02-17T19:19:41.989Z,1.40
2023-02-17T19:22:09.898Z,3.10
2023-02-17T19:24:38.476Z,1.60
2023-02-17T19:27:07.049Z,2.03
2023-02-17T19:29:35.482Z,3.17
2023-02-17T19:32:04.946Z,1.70
2023-02-17T19:34:38.340Z,2.00
2023-02-17T19:37:07.088Z,1.90
2023-02-17T19:39:36.378Z,1.87
2023-02-17T19:42:04.481Z,1.27
2023-02-17T19:44:34.041Z,2.80
2023-02-17T19:47:02.224Z,2.00
2023-02-17T19:49:30.080Z,1.47
2023-02-17T19:52:00.074Z,2.50
2023-02-17T19:54:28.719Z,1.87
2023-02-17T19:56:56.404Z,3.07
2023-02-17T19:59:25.044Z,2.93
2023-02-17T20:01:53.790Z,2.03
2023-02-17T20:04:22.702Z,2.20
2023-02-17T20:06:52.420Z,2.40
2023-02-17T20:09:22.704Z,1.50
2023-02-17T20:11:53.488Z,1.97
2023-02-17T20:14:21.921Z,1.93
2023-02-17T20:16:50.392Z,1.50
2023-02-17T20:19:18.583Z,2.67
2023-02-17T20:21:46.276Z,2.17
2023-02-17T20:24:14.266Z,2.57
2023-02-17T20:26:44.764Z,1.70
2023-02-17T20:29:13.455Z,2.07
2023-02-17T20:31:43.696Z,2.17
2023-02-17T20:34:22.150Z,2.50
2023-02-17T20:36:50.359Z,2.80
2023-02-17T20:39:19.826Z,1.90
2023-02-17T20:41:50.654Z,3.20
2023-02-17T20:44:19.236Z,2.27
2023-02-17T20:46:47.675Z,2.70
2023-02-17T20:49:16.516Z,1.90
2023-02-17T20:51:46.853Z,2.33
2023-02-17T20:54:15.830Z,2.40
2023-02-17T20:56:45.190Z,3.03
2023-02-17T20:59:15.605Z,2.50
2023-02-17T21:01:43.719Z,2.13
2023-02-17T21:04:13.956Z,4.00
2023-02-17T21:06:43.273Z,2.30
2023-02-17T21:09:14.070Z,3.30
2023-02-17T21:11:42.326Z,2.90
2023-02-17T21:14:10.263Z,3.60
2023-02-17T21:16:39.417Z,3.07
2023-02-17T21:19:07.390Z,2.80
2023-02-17T21:21:35.525Z,2.50
2023-02-17T21:24:03.399Z,2.67
2023-02-17T21:26:31.459Z,2.80
2023-02-17T21:28:59.280Z,3.57
2023-02-17T21:31:27.687Z,2.80
2023-02-17T21:33:59.062Z,3.90
2023-02-17T21:36:29.195Z,2.90
2023-02-17T21:38:57.583Z,2.70
2023-02-17T21:41:27.690Z,2.00
2023-02-17T21:44:13.368Z,2.47
2023-02-17T21:46:43.340Z,3.50
2023-02-17T21:49:12.897Z,3.33
2023-02-17T21:51:40.993Z,3.10
2023-02-17T21:54:09.375Z,2.80
2023-02-17T21:56:37.286Z,2.97
2023-02-17T21:59:05.770Z,2.77
2023-02-17T22:01:33.577Z,2.30
2023-02-17T22:04:02.406Z,2.63
2023-02-17T22:06:33.304Z,2.40
2023-02-17T22:09:01.106Z,2.77
2023-02-17T22:11:29.675Z,3.00
2023-02-17T22:13:58.363Z,2.97
2023-02-17T22:16:26.503Z,2.40
2023-02-17T22:18:55.280Z,2.90
2023-02-17T22:21:25.233Z,2.10
2023-02-17T22:23:54.699Z,3.00
2023-02-17T22:26:23.448Z,2.70
2023-02-17T22:28:51.320Z,2.93
2023-02-17T22:31:20.030Z,2.60
2023-02-17T22:33:48.126Z,2.53
2023-02-17T22:36:17.117Z,2.93
2023-02-17T22:38:45.078Z,2.80
2023-02-17T22:41:14.970Z,3.23
2023-02-17T22:43:46.127Z,2.50
2023-02-17T22:46:16.501Z,2.13
2023-02-17T22:48:45.758Z,2.40
2023-02-17T22:51:14.751Z,2.60
2023-02-17T22:53:42.932Z,2.70
2023-02-17T22:56:11.216Z,3.30
2023-02-17T22:58:40.421Z,2.53
2023-02-17T23:01:08.701Z,3.30
2023-02-17T23:03:36.802Z,3.23
2023-02-17T23:06:06.909Z,2.90
2023-02-17T23:08:35.055Z,3.53
2023-02-17T23:11:04.900Z,3.07
2023-02-17T23:13:33.125Z,3.00
2023-02-17T23:16:02.502Z,3.20
2023-02-17T23:18:31.058Z,3.10
2023-02-17T23:20:59.284Z,3.20
2023-02-17T23:23:27.263Z,3.60
2023-02-17T23:25:56.174Z,2.90
2023-02-17T23:28:25.812Z,4.10
2023-02-17T23:30:54.403Z,3.67
2023-02-17T23:33:24.126Z,3.00
2023-02-17T23:35:52.077Z,2.80
2023-02-17T23:38:21.009Z,3.50
2023-02-17T23:40:49.321Z,3.23
2023-02-17T23:43:17.090Z,3.53
2023-02-17T23:45:44.758Z,3.80
2023-02-17T23:48:12.681Z,3.50
2023-02-17T23:50:42.156Z,3.20
2023-02-17T23:53:10.460Z,3.60
2023-02-17T23:55:38.470Z,3.10
2023-02-17T23:58:06.485Z,4.80
